Griffin, Texas
Current Conditions -  °F | °C
As of 2:15 PM on Sunday 25 Jan 2015 (Local Time) from KJSO Reporting Station
Clear Clear  
Wind Chill: 66°   Ceiling: Unl
Heat Index: 66°   Visibility: 10mi
Dew Point: 29°   Wind: 18mph
Humidity: 25%   Direction: 290°WNW
Pressure: 29.98"   Gusts: 28mph
Location:  32.0774°N, 95.1103°W
Report Text: KJSO 252015Z AUTO 29016G24KT 10SM CLR 19/M02 A2998 RMK AO2 T01911015
Loading
Personal Weather Stations






























Interactive Weather Map New forecast layout! Learn more

10-Day Weather Forecast

Advertisements
Track Severe Weather on mobile